Union Springs, Louisiana
Current Conditions -  °F | °C
As of 1:55 AM on Monday 24 Nov 2014 (Local Time) from KIER Reporting Station
Clear Clear  
Wind Chill: 58°   Ceiling: Unl
Heat Index: 58°   Visibility: 10mi
Dew Point: 48°   Wind: 13mph
Humidity: 70%   Direction: 280°W
Pressure: 29.74"   Gusts: 17mph
Location:  31.7915°N, 93.7011°W
Report Text: KIER 240755Z AUTO 28011G15KT 10SM CLR 14/09 A2974 RMK AO2 T01440089
Loading
Personal Weather Stations






























Interactive Weather Map New forecast layout! Learn more

10-Day Weather Forecast

Advertisements
Track Severe Weather on mobile